Startpagina
METAR-TAF:

METAR-TAF

Vliegvelden :

Groningen Airport Eelde

Groningen, Nederland

breedte: 53-08N, lengte: 006-35E, hoogte: 4 m

Actueel weer

Dit bericht is 33 minuten geleden gemaakt, om 17:55 UTC
Wind 10 kt uit het oostnoordoosten
Temperatuur 15°C
Vochtigheid 63%
Druk 1018 hPa
Zicht 10 km of meer

METAR: EHGG 191755Z AUTO 06010KT 9999 NCD 15/08 Q1018 NOSIG

Tijdstip: 20:28 (18:28 UTC)

Verwachting

Dit bericht is 1 uur en het 46 minuten geleden gemaakt, om 16:42 UTC
Verwachting geldig van 19 om 18 UTC tot 20 om 24 UTC
Wind 8 kt uit het oostnoordoosten
Zicht 10 km of meer
geen wolken onder 1500 m en geen cumulonimbus

TAF: EHGG 191642Z 1918/2024 06008KT CAVOK

Waarnemingen en weersverwachtingen van meer dan 4000 vliegvelden (METAR en TAF).

De beschikbare stations zijn de gele en rode punten op de kaart.

Ga met uw muis naar het station om de naam te zien.

Klik dan om waarnemingen en weersverwachtingen te zien.

kaart wijzigen: klik op de groene knoppen met een zwart kruis om in te zoomen, op de groene knop met een streepje om uit te zoomen of op de groene pijlen voor aangrenzende kaarten.


METAR-TAF: